BRU weather

Brussels Airport
Brussels, Brussels-Capital Region, Belgium

Public forecast

Using degrees Celsius for public forecast. Weather courtesy of forecast.io.

METAR (pilot weather report)

Retrieved 2017/07/23 04:20 UTC (0 seconds ago):

EBBR 230420Z 20008KT 9999 FEW046 13/11 Q1013 NOSIG

TAF (pilot weather forecast)

Forecast is more than 12 hours old.

Retrieved 2017/07/22 00:27 UTC (1 day ago):

TAF TAF EBBR 222301Z 2300/2406 15003KT 9999 FEW030TCU SCT040 BECMG 2306/2308 21013KT PROB30 TEMPO 2307/2312 22015G25KT 4500 SHRA PROB30 TEMPO 2312/2316 SHRA BECMG 2320/2322 20003KT